Terminal Aerodrome Forecast
Issued by NWS Lake Charles, LA

Home | Current Version | Previous Version | Text Only | Print | Product List | Glossary On
Versions: 1 2 3 4 5 6 7 8 9 10 11 12 13 14 15 16 17 18 19 20 21
000
FTUS44 KLCH 170234 AAA
TAFLCH
TAF AMD
KLCH 170234Z 1703/1724 16010KT P6SM OVC007
      TEMPO 1703/1706 6SM BR SCT007 OVC013
     FM170600 15007KT 3SM BR VCSH OVC007
      TEMPO 1706/1710 2SM BR OVC017
     FM171400 14004KT 6SM BR OVC009
     FM171600 16010KT P6SM VCSH OVC015=

USA.gov is the U.S. government's official web portal to all federal, state and local government web resources and services.